Time;durP1;ratioP1;P1;durP2;ratioP2;P2;SDS_P1;SDS_P2;PMS_P1;PMS_P2;Temp;Humidity;BMP_temperature;BMP_pressure;BME280_temperature;BME280_humidity;BME280_pressure;Samples;Min_cycle;Max_cycle;Signal;HPM_P1;HPM_P2
2021/12/14 00:04:43;;;;;;;1.97;1.40;;;17.50;62.00;;;;;;10427310;28;20596;-69
2021/12/14 00:10:16;;;;;;;1.90;1.60;;;17.50;61.90;;;;;;10415340;28;20209;-68
2021/12/14 00:15:40;;;;;;;1.63;1.50;;;17.50;61.90;;;;;;10416652;28;20228;-69
2021/12/14 00:21:05;;;;;;;1.77;1.40;;;17.50;61.90;;;;;;10416234;28;20198;-68
2021/12/14 00:26:27;;;;;;;1.70;1.60;;;17.50;61.90;;;;;;10414646;28;20217;-69
2021/12/14 00:31:52;;;;;;;2.10;1.60;;;17.50;61.90;;;;;;10418191;28;20202;-69
2021/12/14 00:37:17;;;;;;;1.90;1.50;;;17.50;61.90;;;;;;10414100;28;20589;-68
2021/12/14 00:42:39;;;;;;;1.53;1.43;;;17.50;61.90;;;;;;10414264;28;20202;-68
2021/12/14 00:48:04;;;;;;;1.30;1.20;;;17.50;61.90;;;;;;10414677;28;20218;-69
2021/12/14 00:53:27;;;;;;;1.60;1.40;;;17.50;61.90;;;;;;10413528;28;20202;-68
2021/12/14 00:58:49;;;;;;;1.40;1.30;;;17.40;61.90;;;;;;10412363;28;20217;-69
2021/12/14 01:04:17;;;;;;;1.77;1.40;;;17.50;61.90;;;;;;10413036;28;20224;-67
2021/12/14 01:09:44;;;;;;;1.80;1.47;;;17.50;61.90;;;;;;10411805;28;20216;-69
2021/12/14 01:15:24;;;;;;;1.77;1.50;;;17.40;61.90;;;;;;10413109;28;20217;-68
2021/12/14 01:20:52;;;;;;;1.60;1.50;;;17.40;61.90;;;;;;10421085;28;20193;-69
2021/12/14 01:26:19;;;;;;;1.30;1.20;;;17.40;61.90;;;;;;10453542;28;20209;-68
2021/12/14 01:31:42;;;;;;;1.33;1.23;;;17.50;61.90;;;;;;10452893;28;20203;-68
2021/12/14 01:37:14;;;;;;;1.60;1.47;;;17.40;61.90;;;;;;10451535;28;20221;-68
2021/12/14 01:42:40;;;;;;;1.20;1.10;;;17.40;61.90;;;;;;10449222;28;20604;-68
2021/12/14 01:48:04;;;;;;;1.63;1.50;;;17.40;61.80;;;;;;10415874;28;20214;-68
2021/12/14 01:53:28;;;;;;;1.40;1.30;;;17.40;61.80;;;;;;10410329;28;20194;-68
2021/12/14 01:58:53;;;;;;;1.33;1.20;;;17.40;61.90;;;;;;10411034;28;20225;-68
2021/12/14 02:04:19;;;;;;;1.57;1.40;;;17.40;61.80;;;;;;10410983;28;20194;-69
2021/12/14 02:09:43;;;;;;;1.43;1.27;;;17.40;61.80;;;;;;10409809;28;20673;-68
2021/12/14 02:15:10;;;;;;;1.23;1.13;;;17.40;61.80;;;;;;10410710;28;20601;-68
2021/12/14 02:20:37;;;;;;;1.30;1.20;;;17.40;61.80;;;;;;10411415;28;20198;-68
2021/12/14 02:26:04;;;;;;;1.73;1.50;;;17.40;62.40;;;;;;10410446;28;20210;-69
2021/12/14 02:31:28;;;;;;;1.47;1.37;;;17.40;61.90;;;;;;10411370;28;20204;-68
2021/12/14 02:36:52;;;;;;;1.30;1.20;;;17.40;61.80;;;;;;10410751;28;20236;-70
2021/12/14 02:42:21;;;;;;;1.20;1.10;;;17.40;61.90;;;;;;10410626;28;20233;-68
2021/12/14 02:47:44;;;;;;;1.33;1.20;;;17.40;61.80;;;;;;10409652;28;20222;-69
2021/12/14 02:53:06;;;;;;;1.27;1.17;;;17.40;61.80;;;;;;10410503;28;20209;-68
2021/12/14 02:58:29;;;;;;;1.50;1.30;;;17.40;61.80;;;;;;10408802;28;20224;-68
2021/12/14 03:03:52;;;;;;;1.40;1.27;;;17.40;61.80;;;;;;10403620;28;20197;-68
2021/12/14 03:09:32;;;;;;;2.00;1.17;;;17.40;61.80;;;;;;10409289;28;20204;-69
2021/12/14 03:14:59;;;;;;;1.10;1.00;;;17.40;61.80;;;;;;10420795;28;20254;-68
2021/12/14 03:20:24;;;;;;;1.60;1.43;;;17.40;61.80;;;;;;10451366;28;20193;-68
2021/12/14 03:25:50;;;;;;;1.30;1.20;;;17.40;61.80;;;;;;10459308;28;20221;-68
2021/12/14 03:31:26;;;;;;;1.43;1.33;;;17.40;61.80;;;;;;10458981;28;20197;-68
2021/12/14 03:36:54;;;;;;;1.13;1.03;;;17.40;61.70;;;;;;10458806;28;20216;-68
2021/12/14 03:42:21;;;;;;;1.20;1.10;;;17.40;61.80;;;;;;10457876;28;20193;-68
2021/12/14 03:47:50;;;;;;;1.37;1.27;;;17.40;61.80;;;;;;10425817;28;20263;-70
2021/12/14 03:53:14;;;;;;;1.33;1.23;;;17.40;61.80;;;;;;10416009;28;20279;-68
2021/12/14 03:58:39;;;;;;;1.60;1.50;;;17.40;61.80;;;;;;10415283;28;20236;-69
2021/12/14 04:04:10;;;;;;;1.40;1.13;;;17.40;61.80;;;;;;10415894;28;20676;-69
2021/12/14 04:09:35;;;;;;;1.40;1.30;;;17.40;62.10;;;;;;10415613;28;20365;-68
2021/12/14 04:14:58;;;;;;;1.00;0.90;;;17.40;61.80;;;;;;10414626;28;20225;-68
2021/12/14 04:20:24;;;;;;;1.73;1.10;;;17.40;61.80;;;;;;10416259;28;20573;-69
2021/12/14 04:25:48;;;;;;;1.10;1.00;;;17.40;61.80;;;;;;10414975;28;20217;-68
2021/12/14 04:31:11;;;;;;;1.13;1.07;;;17.40;61.80;;;;;;10414573;28;20202;-68
2021/12/14 04:36:35;;;;;;;1.20;1.10;;;17.40;61.80;;;;;;10413427;28;20218;-68
2021/12/14 04:53:44;;;;;;;1.50;1.07;;;17.50;61.50;;;;;;10411758;28;20206;-68
2021/12/14 04:59:10;;;;;;;1.10;1.00;;;17.50;61.40;;;;;;10413726;28;20228;-69
2021/12/14 05:04:33;;;;;;;1.30;1.20;;;17.40;61.40;;;;;;10413417;28;20226;-68
2021/12/14 05:09:56;;;;;;;1.30;1.20;;;17.50;61.40;;;;;;10413596;28;20233;-68
2021/12/14 05:15:19;;;;;;;1.30;1.20;;;17.50;61.50;;;;;;10412459;28;20224;-68
2021/12/14 05:20:43;;;;;;;1.20;1.10;;;17.50;61.50;;;;;;10442445;28;20198;-69
2021/12/14 05:26:07;;;;;;;1.10;1.00;;;17.50;61.50;;;;;;10453859;28;20220;-69
2021/12/14 05:31:31;;;;;;;1.10;1.00;;;17.50;61.40;;;;;;10439819;28;20201;-69
2021/12/14 05:36:53;;;;;;;1.23;1.07;;;17.50;61.20;;;;;;10441239;22;20605;-64
2021/12/14 05:47:59;;;;;;;1.03;1.00;;;17.60;61.20;;;;;;10488044;28;20208;-65
2021/12/14 05:53:25;;;;;;;1.20;1.00;;;17.60;61.30;;;;;;10494348;28;20200;-65
2021/12/14 05:58:50;;;;;;;1.40;0.90;;;17.60;61.30;;;;;;10491906;28;20235;-65
2021/12/14 06:04:13;;;;;;;1.23;1.13;;;17.60;61.20;;;;;;10493082;28;20674;-65
2021/12/14 06:09:37;;;;;;;1.40;1.20;;;17.60;61.20;;;;;;10491875;28;20215;-66
2021/12/14 06:15:02;;;;;;;1.60;1.20;;;17.60;61.20;;;;;;10500149;28;20200;-65
2021/12/14 06:20:28;;;;;;;1.70;1.27;;;17.60;61.20;;;;;;10493598;28;20211;-66
2021/12/14 06:25:50;;;;;;;0.97;0.90;;;17.60;61.20;;;;;;10489911;28;20204;-65
2021/12/14 06:31:14;;;;;;;1.10;0.90;;;17.60;61.20;;;;;;10493624;28;20200;-65
2021/12/14 06:37:14;;;;;;;1.30;1.20;;;17.60;61.20;;;;;;10460256;28;20220;-66
2021/12/14 06:42:40;;;;;;;1.30;0.97;;;17.60;61.20;;;;;;10492841;28;20196;-65
2021/12/14 06:48:06;;;;;;;1.13;1.00;;;17.60;61.20;;;;;;10492246;28;20219;-66
2021/12/14 06:53:29;;;;;;;1.80;1.23;;;17.60;61.20;;;;;;10493742;28;20247;-65
2021/12/14 06:58:54;;;;;;;1.08;1.02;;;17.60;61.20;;;;;;10489435;28;20438;-65
2021/12/14 07:04:21;;;;;;;1.70;0.73;;;18.20;59.40;;;;;;10500782;28;20211;-65
2021/12/14 07:09:46;;;;;;;0.70;0.70;;;17.90;60.20;;;;;;10499710;28;20219;-65
2021/12/14 07:15:15;;;;;;;1.30;0.93;;;17.80;60.60;;;;;;10488552;28;20279;-65
2021/12/14 07:20:42;;;;;;;1.00;0.90;;;17.80;60.80;;;;;;10509954;28;20224;-65
2021/12/14 07:26:07;;;;;;;1.00;0.80;;;17.80;60.90;;;;;;10502701;28;20730;-65
2021/12/14 07:31:29;;;;;;;1.10;1.00;;;17.80;61.00;;;;;;10491607;28;20203;-65
2021/12/14 07:36:53;;;;;;;1.93;0.97;;;17.80;61.00;;;;;;10482551;28;20603;-64
2021/12/14 07:42:17;;;;;;;3.00;1.20;;;17.80;61.40;;;;;;10493706;28;20664;-57
2021/12/14 07:47:51;;;;;;;21.23;4.10;;;18.00;62.20;;;;;;10496739;28;20430;-68
2021/12/14 07:53:15;;;;;;;8.50;2.58;;;18.50;59.60;;;;;;10489014;28;20430;-69
2021/12/14 07:58:40;;;;;;;4.83;2.17;;;18.10;61.10;;;;;;10495438;28;20231;-68
2021/12/14 08:04:06;;;;;;;4.57;1.77;;;17.80;61.90;;;;;;10496804;28;20563;-68
2021/12/14 08:09:47;;;;;;;4.93;2.53;;;17.70;62.50;;;;;;10495518;28;20243;-67
2021/12/14 08:15:26;;;;;;;19.60;8.63;;;17.60;62.50;;;;;;10521232;28;20201;-68
2021/12/14 08:20:53;;;;;;;16.20;8.83;;;17.30;58.20;;;;;;10508219;28;20668;-69
2021/12/14 08:26:19;;;;;;;19.53;7.70;;;17.00;57.10;;;;;;10509289;28;20654;-68
2021/12/14 08:31:44;;;;;;;14.87;6.10;;;17.00;58.70;;;;;;10472413;28;20223;-70
2021/12/14 08:37:10;;;;;;;11.97;5.30;;;17.00;60.40;;;;;;10490514;28;20657;-68
2021/12/14 08:42:42;;;;;;;10.00;3.97;;;17.10;61.20;;;;;;10504197;28;20184;-70
2021/12/14 08:48:12;;;;;;;9.60;4.10;;;17.20;61.80;;;;;;10494090;28;20469;-72
2021/12/14 08:53:36;;;;;;;7.97;3.23;;;18.10;59.40;;;;;;10502130;28;20548;-73
2021/12/14 08:59:04;;;;;;;11.73;2.70;;;17.60;61.20;;;;;;10481608;28;20219;-73
2021/12/14 09:04:30;;;;;;;3.40;2.43;;;17.40;62.00;;;;;;10493188;28;20836;-72
2021/12/14 09:09:53;;;;;;;3.83;1.90;;;17.30;62.40;;;;;;10493748;28;20215;-72
2021/12/14 09:15:23;;;;;;;6.03;2.20;;;17.30;62.70;;;;;;10495534;28;20215;-72
2021/12/14 09:20:49;;;;;;;4.57;2.03;;;17.30;62.90;;;;;;10474431;28;20272;-73
2021/12/14 09:26:15;;;;;;;3.83;1.80;;;17.30;62.90;;;;;;10483529;28;20564;-72
2021/12/14 09:31:41;;;;;;;4.17;2.00;;;17.30;62.90;;;;;;10484294;28;20196;-72
2021/12/14 09:37:07;;;;;;;2.90;1.70;;;17.30;62.90;;;;;;10478825;28;20223;-73
2021/12/14 09:42:32;;;;;;;3.87;1.70;;;17.30;63.00;;;;;;10494115;28;20544;-74
2021/12/14 09:47:56;;;;;;;5.93;1.30;;;17.30;63.10;;;;;;10495013;28;20219;-74
2021/12/14 09:53:24;;;;;;;3.03;1.47;;;17.30;63.10;;;;;;10499984;28;20200;-73
2021/12/14 09:58:49;;;;;;;2.10;1.37;;;17.30;63.20;;;;;;10494603;28;20212;-74
2021/12/14 10:04:16;;;;;;;2.90;1.40;;;17.30;63.30;;;;;;10493225;28;20192;-74
2021/12/14 10:09:43;;;;;;;2.30;1.57;;;17.30;63.30;;;;;;10483787;28;20227;-72
2021/12/14 10:15:09;;;;;;;2.57;1.10;;;17.30;63.30;;;;;;10492409;28;20200;-70
2021/12/14 10:20:38;;;;;;;1.73;1.40;;;17.30;63.30;;;;;;10478082;28;20224;-69
2021/12/14 10:26:00;;;;;;;3.13;1.63;;;17.40;63.20;;;;;;10484908;28;20204;-69
2021/12/14 10:31:28;;;;;;;1.67;1.30;;;17.40;63.20;;;;;;10493870;28;20203;-70
2021/12/14 10:37:01;;;;;;;1.43;1.30;;;17.40;63.20;;;;;;10476896;28;20219;-69
2021/12/14 10:48:21;;;;;;;1.43;1.30;;;17.40;63.30;;;;;;10362551;28;20206;-70
2021/12/14 10:53:48;;;;;;;1.77;1.40;;;17.40;63.40;;;;;;10471803;28;20192;-69
2021/12/14 10:59:14;;;;;;;1.13;1.03;;;17.40;63.30;;;;;;10504676;28;20216;-70
2021/12/14 11:04:39;;;;;;;2.20;1.17;;;17.40;63.30;;;;;;10492353;28;20207;-70
2021/12/14 11:10:16;;;;;;;1.67;1.20;;;17.40;63.30;;;;;;10491840;28;20691;-70
2021/12/14 11:15:43;;;;;;;2.23;1.03;;;17.50;63.30;;;;;;10492447;28;20200;-69
2021/12/14 11:21:08;;;;;;;2.03;1.23;;;17.50;63.40;;;;;;10477725;28;20227;-69
2021/12/14 11:26:35;;;;;;;1.20;1.03;;;17.40;63.30;;;;;;10492526;28;20213;-70
2021/12/14 11:32:02;;;;;;;1.47;1.00;;;17.40;63.30;;;;;;10497650;28;20687;-70
2021/12/14 11:37:33;;;;;;;1.53;1.17;;;17.40;63.30;;;;;;10522457;22;20590;-71
2021/12/14 11:43:09;;;;;;;2.37;1.00;;;17.40;63.30;;;;;;10540445;28;20179;-71
2021/12/14 11:48:35;;;;;;;1.93;1.10;;;17.50;63.30;;;;;;10526759;28;20208;-72
2021/12/14 11:54:00;;;;;;;1.10;1.00;;;17.40;63.30;;;;;;10504886;28;20563;-73
2021/12/14 11:59:24;;;;;;;2.63;1.20;;;17.40;63.30;;;;;;10504310;28;20224;-72
2021/12/14 12:04:47;;;;;;;1.37;1.10;;;17.50;63.90;;;;;;10512496;28;20199;-72
2021/12/14 12:10:10;;;;;;;2.10;1.30;;;17.40;63.30;;;;;;10510573;28;20220;-72
2021/12/14 12:15:39;;;;;;;1.30;1.10;;;17.40;63.30;;;;;;10521154;28;20196;-72
2021/12/14 12:21:01;;;;;;;1.77;1.10;;;17.50;63.40;;;;;;10490296;28;20199;-72
2021/12/14 12:26:28;;;;;;;1.10;1.00;;;17.40;63.30;;;;;;10519021;28;20215;-72
2021/12/14 12:31:59;;;;;;;2.13;1.30;;;17.50;63.30;;;;;;10521233;28;20570;-72
2021/12/14 12:37:39;;;;;;;3.27;1.03;;;17.50;63.30;;;;;;10513780;28;20711;-72
2021/12/14 12:43:31;;;;;;;1.40;1.30;;;17.50;63.20;;;;;;10499896;28;20203;-72
2021/12/14 12:49:18;;;;;;;1.17;1.07;;;17.50;63.20;;;;;;10472393;28;20686;-72
2021/12/14 12:54:54;;;;;;;1.50;1.10;;;17.50;63.30;;;;;;10506424;28;20196;-72
2021/12/14 13:00:23;;;;;;;1.10;1.00;;;17.50;63.30;;;;;;10514510;28;20211;-72
2021/12/14 13:05:53;;;;;;;1.13;1.03;;;17.50;63.30;;;;;;10503015;28;20672;-72
2021/12/14 13:11:18;;;;;;;1.73;1.00;;;17.50;63.40;;;;;;10485271;28;20200;-72
2021/12/14 13:16:43;;;;;;;1.40;1.30;;;17.50;63.60;;;;;;10510481;28;20219;-72
2021/12/14 13:22:09;;;;;;;3.67;1.43;;;17.50;63.80;;;;;;10511453;28;20586;-72
2021/12/14 13:27:31;;;;;;;3.30;1.53;;;17.50;63.90;;;;;;10508886;28;20207;-72
2021/12/14 13:32:53;;;;;;;1.70;1.30;;;17.50;64.10;;;;;;10495723;28;20192;-72
2021/12/14 13:38:16;;;;;;;2.25;1.40;;;17.50;64.20;;;;;;10510231;28;20432;-70
2021/12/14 13:43:41;;;;;;;1.40;1.20;;;18.30;62.00;;;;;;10516430;28;20195;-71
2021/12/14 13:49:03;;;;;;;1.67;1.20;;;17.90;62.90;;;;;;10497337;28;20203;-70
2021/12/14 13:54:27;;;;;;;2.33;1.30;;;17.70;63.60;;;;;;10519795;28;20188;-71
2021/12/14 13:59:49;;;;;;;1.97;1.17;;;17.70;63.90;;;;;;10495455;28;20216;-71
2021/12/14 14:05:11;;;;;;;1.53;1.20;;;17.60;64.00;;;;;;10496629;28;20706;-71
2021/12/14 14:10:36;;;;;;;1.30;1.10;;;17.60;64.10;;;;;;10516007;28;20203;-69
2021/12/14 14:15:59;;;;;;;1.27;1.10;;;17.70;64.20;;;;;;10512594;28;20196;-71
2021/12/14 14:21:31;;;;;;;2.00;1.30;;;17.60;64.20;;;;;;10510590;28;20196;-71
2021/12/14 14:26:55;;;;;;;1.67;1.07;;;17.70;64.20;;;;;;10499523;28;21027;-71
2021/12/14 14:32:30;;;;;;;2.63;1.50;;;17.70;64.30;;;;;;10511890;28;20199;-73
2021/12/14 14:37:53;;;;;;;2.13;1.53;;;17.70;64.50;;;;;;10516511;28;20722;-72
2021/12/14 14:43:17;;;;;;;2.50;1.67;;;17.60;65.40;;;;;;10509425;28;20211;-72
2021/12/14 14:48:39;;;;;;;1.33;1.23;;;17.60;64.90;;;;;;10518040;28;20216;-72
2021/12/14 14:54:01;;;;;;;3.53;1.90;;;17.60;65.00;;;;;;10505174;28;20199;-72
2021/12/14 14:59:25;;;;;;;1.83;1.43;;;17.50;65.00;;;;;;10510318;28;20220;-72
2021/12/14 15:05:01;;;;;;;1.83;1.40;;;17.50;65.10;;;;;;10517159;28;20663;-73
2021/12/14 15:10:31;;;;;;;2.53;1.70;;;17.60;65.00;;;;;;10499640;28;20208;-73
2021/12/14 15:16:02;;;;;;;1.80;1.60;;;17.50;65.10;;;;;;10515619;28;20191;-72
2021/12/14 15:21:33;;;;;;;1.70;1.60;;;17.50;65.10;;;;;;10516839;28;20208;-72
2021/12/14 15:27:19;;;;;;;1.70;1.40;;;17.50;65.10;;;;;;10512531;28;20226;-72
2021/12/14 15:33:00;;;;;;;1.60;1.50;;;17.50;65.00;;;;;;10523004;28;20592;-72
2021/12/14 15:38:36;;;;;;;1.57;1.47;;;17.50;65.00;;;;;;10517335;28;20212;-72
2021/12/14 15:44:03;;;;;;;1.97;1.70;;;17.50;65.10;;;;;;10518109;28;20193;-71
2021/12/14 15:49:32;;;;;;;2.50;1.67;;;17.50;65.20;;;;;;10517931;28;20204;-71
2021/12/14 15:54:54;;;;;;;1.90;1.53;;;17.50;65.10;;;;;;10485865;28;20192;-68
2021/12/14 16:00:17;;;;;;;2.10;1.40;;;17.50;64.90;;;;;;10519013;28;20211;-68
2021/12/14 16:05:40;;;;;;;1.50;1.40;;;17.60;64.90;;;;;;10523167;28;20202;-69
2021/12/14 16:11:19;;;;;;;2.00;1.30;;;17.60;64.90;;;;;;10500204;28;20660;-71
2021/12/14 16:16:41;;;;;;;1.30;1.20;;;17.60;64.90;;;;;;10522319;28;20208;-71
2021/12/14 16:22:12;;;;;;;1.87;1.50;;;17.60;65.10;;;;;;10519442;28;20207;-71
2021/12/14 16:27:35;;;;;;;1.63;1.30;;;17.60;65.20;;;;;;10513909;28;20220;-72
2021/12/14 16:33:11;;;;;;;2.33;1.40;;;17.60;66.00;;;;;;10490207;28;20194;-73
2021/12/14 16:38:37;;;;;;;1.30;1.20;;;17.60;65.50;;;;;;10515365;28;20229;-70
2021/12/14 16:44:02;;;;;;;1.80;1.53;;;17.60;65.80;;;;;;10509040;28;20192;-71
2021/12/14 16:49:28;;;;;;;2.47;1.50;;;17.60;66.00;;;;;;10505000;28;20232;-69
2021/12/14 16:54:55;;;;;;;2.67;1.60;;;17.60;66.00;;;;;;10485078;28;20185;-69
2021/12/14 17:00:22;;;;;;;1.53;1.40;;;17.60;65.90;;;;;;10511823;28;20719;-69
2021/12/14 17:05:47;;;;;;;2.80;1.40;;;17.60;66.40;;;;;;10489656;28;20196;-70
2021/12/14 17:11:15;;;;;;;1.37;1.27;;;17.60;65.80;;;;;;10497780;28;20290;-69
2021/12/14 17:16:42;;;;;;;1.43;1.20;;;17.60;65.80;;;;;;10516784;28;20211;-68
2021/12/14 17:22:07;;;;;;;1.70;1.60;;;17.60;65.80;;;;;;10514406;28;20199;-69
2021/12/14 17:27:34;;;;;;;1.33;1.23;;;17.60;65.80;;;;;;10503723;28;20219;-71
2021/12/14 17:32:58;;;;;;;1.37;1.27;;;17.60;65.70;;;;;;10498998;28;20192;-71
2021/12/14 17:38:23;;;;;;;1.30;1.20;;;17.60;65.70;;;;;;10515309;22;20231;-71
2021/12/14 17:43:48;;;;;;;1.40;1.30;;;17.60;65.60;;;;;;10401164;28;20206;-70
2021/12/14 17:49:14;;;;;;;1.40;1.30;;;17.60;65.50;;;;;;10397500;28;20744;-70
2021/12/14 17:54:41;;;;;;;1.33;1.23;;;17.70;65.50;;;;;;10408140;28;20177;-72
2021/12/14 18:00:10;;;;;;;1.77;1.50;;;17.60;65.40;;;;;;10395894;28;20213;-71
2021/12/14 18:05:35;;;;;;;1.50;1.40;;;17.60;65.40;;;;;;10395936;28;20198;-70
2021/12/14 18:11:04;;;;;;;1.40;1.30;;;17.70;65.40;;;;;;10431001;28;20220;-71
2021/12/14 18:16:37;;;;;;;1.73;1.63;;;17.70;65.30;;;;;;10417338;28;20193;-71
2021/12/14 18:22:02;;;;;;;1.33;1.23;;;17.60;65.20;;;;;;10427779;28;20206;-70
2021/12/14 18:27:29;;;;;;;1.60;1.33;;;17.70;65.30;;;;;;10414351;28;20220;-70
2021/12/14 18:32:53;;;;;;;1.77;1.47;;;17.70;65.30;;;;;;10420359;28;20213;-71
2021/12/14 18:38:20;;;;;;;1.70;1.60;;;17.70;65.40;;;;;;10424652;28;20680;-70
2021/12/14 18:43:43;;;;;;;1.97;1.60;;;17.70;65.50;;;;;;10433346;28;20572;-71
2021/12/14 18:54:52;;;;;;;2.07;1.37;;;17.70;65.60;;;;;;10407674;28;20206;-71
2021/12/14 19:00:19;;;;;;;1.40;1.30;;;17.70;65.50;;;;;;10399940;28;20773;-71
2021/12/14 19:05:45;;;;;;;2.67;1.50;;;17.70;66.10;;;;;;10404185;28;20648;-69
2021/12/14 19:11:11;;;;;;;11.63;2.37;;;17.70;65.70;;;;;;10397373;28;20213;-65
